Time;durP1;ratioP1;P1;durP2;ratioP2;P2;SDS_P1;SDS_P2;PMS_P1;PMS_P2;Temp;Humidity;BMP_temperature;BMP_pressure;BME280_temperature;BME280_humidity;BME280_pressure;Samples;Min_cycle;Max_cycle;Signal;HPM_P1;HPM_P2
2024/02/17 00:00:03;;;;;;;12.23;6.05;;;;;;;-6.10;64.00;101481.06;4781810;29;20534;-70
2024/02/17 00:02:32;;;;;;;12.55;6.70;;;;;;;-6.34;64.21;101441.84;4782940;29;20055;-68
2024/02/17 00:04:59;;;;;;;16.85;6.82;;;;;;;-6.07;64.77;101464.44;4772272;29;20106;-70
2024/02/17 00:07:25;;;;;;;16.17;6.80;;;;;;;-5.93;64.63;101483.34;4782387;29;20062;-70
2024/02/17 00:09:52;;;;;;;20.92;7.13;;;;;;;-6.02;64.40;101464.88;4779730;29;20046;-70
2024/02/17 00:12:19;;;;;;;17.23;7.05;;;;;;;-5.96;64.08;101462.81;4792481;29;20511;-69
2024/02/17 00:14:45;;;;;;;12.20;5.70;;;;;;;-5.73;64.95;101484.13;4790913;29;20051;-68
2024/02/17 00:17:14;;;;;;;17.27;6.10;;;;;;;-6.10;64.38;101433.81;4766575;29;20144;-69
2024/02/17 00:19:40;;;;;;;13.38;6.32;;;;;;;-6.15;63.34;101452.78;4777533;29;21321;-70
2024/02/17 00:22:06;;;;;;;16.70;6.60;;;;;;;-6.09;64.16;101468.53;4760886;29;20399;-70
2024/02/17 00:24:32;;;;;;;15.45;6.32;;;;;;;-6.26;64.12;101418.03;4780697;29;20074;-71
2024/02/17 00:26:58;;;;;;;13.13;5.85;;;;;;;-6.06;64.00;101470.44;4765305;29;20050;-68
2024/02/17 00:29:27;;;;;;;14.18;6.78;;;;;;;-6.32;64.21;101453.00;4780989;29;20046;-68
2024/02/17 00:31:53;;;;;;;17.90;7.43;;;;;;;-6.20;64.72;101454.03;4778517;29;20042;-70
2024/02/17 00:34:19;;;;;;;11.70;5.65;;;;;;;-6.07;64.16;101472.06;4779555;29;20050;-66
2024/02/17 00:36:48;;;;;;;15.27;6.22;;;;;;;-6.28;64.42;101447.41;4777566;29;20039;-67
2024/02/17 00:39:14;;;;;;;15.98;6.50;;;;;;;-6.31;64.35;101442.13;4766198;29;20054;-67
2024/02/17 00:41:42;;;;;;;15.52;6.75;;;;;;;-6.06;64.92;101461.16;4764846;29;20051;-68
2024/02/17 00:44:08;;;;;;;19.17;6.70;;;;;;;-6.01;65.11;101442.91;4777302;29;20042;-66
2024/02/17 00:46:34;;;;;;;14.65;6.55;;;;;;;-5.97;64.86;101442.38;4778111;29;20062;-67
2024/02/17 00:49:01;;;;;;;12.25;6.30;;;;;;;-5.86;64.52;101441.66;4777880;29;20083;-68
2024/02/17 00:51:27;;;;;;;11.88;6.30;;;;;;;-5.81;64.05;101462.31;4775836;29;20046;-67
2024/02/17 00:53:53;;;;;;;12.38;6.20;;;;;;;-6.02;63.89;101448.75;4777773;29;20038;-68
2024/02/17 00:56:21;;;;;;;16.75;6.93;;;;;;;-6.30;64.69;101393.22;4780567;29;20408;-68
2024/02/17 00:58:48;;;;;;;18.60;7.38;;;;;;;-6.13;64.97;101431.00;4776468;29;20197;-68
2024/02/17 01:01:14;;;;;;;15.23;7.15;;;;;;;-5.93;64.58;101425.00;4775236;29;20047;-69
2024/02/17 01:03:40;;;;;;;19.05;6.78;;;;;;;-5.82;64.37;101453.81;4780273;29;20731;-68
2024/02/17 01:06:07;;;;;;;12.95;6.45;;;;;;;-6.00;64.09;101421.88;4753465;29;20145;-67
2024/02/17 01:08:36;;;;;;;12.15;6.30;;;;;;;-5.77;64.52;101437.34;4774028;29;20118;-68
2024/02/17 01:11:01;;;;;;;15.25;6.35;;;;;;;-6.12;64.39;101387.16;4770082;29;20558;-67
2024/02/17 01:13:28;;;;;;;15.68;6.13;;;;;;;-5.96;64.64;101424.78;4775629;29;20118;-68
2024/02/17 01:15:54;;;;;;;18.55;7.47;;;;;;;-5.88;65.00;101421.97;4777512;29;20047;-68
2024/02/17 01:18:20;;;;;;;13.65;6.75;;;;;;;-5.84;64.66;101396.13;4789829;29;20054;-69
2024/02/17 01:20:47;;;;;;;16.55;6.72;;;;;;;-5.67;64.85;101422.88;4765513;29;20499;-66
2024/02/17 01:23:13;;;;;;;14.00;6.75;;;;;;;-5.81;65.11;101392.19;4783476;29;20051;-68
2024/02/17 01:25:38;;;;;;;14.35;6.78;;;;;;;-5.77;64.50;101389.16;4792605;29;20101;-65
2024/02/17 01:28:05;;;;;;;13.80;6.30;;;;;;;-5.64;63.54;101425.69;4779214;29;20051;-67
2024/02/17 01:30:31;;;;;;;17.58;7.50;;;;;;;-5.95;64.42;101402.84;4784033;29;20062;-68
2024/02/17 01:32:57;;;;;;;18.05;7.47;;;;;;;-5.94;64.05;101409.69;4779121;29;20051;-68
2024/02/17 01:35:23;;;;;;;14.02;6.57;;;;;;;-5.80;64.72;101413.38;4779591;29;20210;-67
2024/02/17 01:37:50;;;;;;;13.27;6.53;;;;;;;-5.65;65.04;101421.38;4765055;29;20233;-68
2024/02/17 01:40:19;;;;;;;13.75;6.63;;;;;;;-5.62;64.75;101408.91;4793760;29;20046;-65
2024/02/17 01:42:45;;;;;;;18.35;7.05;;;;;;;-5.53;64.65;101412.22;4793250;29;20053;-69
2024/02/17 01:45:11;;;;;;;16.98;7.28;;;;;;;-5.53;64.37;101408.81;4778286;29;20055;-68
2024/02/17 01:47:38;;;;;;;18.50;7.90;;;;;;;-5.46;63.96;101414.50;4783221;29;20057;-67
2024/02/17 01:50:05;;;;;;;18.92;7.75;;;;;;;-5.71;64.00;101392.94;4783119;29;20130;-67
2024/02/17 01:52:32;;;;;;;16.35;7.35;;;;;;;-5.67;63.99;101402.59;4781170;29;20588;-66
2024/02/17 01:55:00;;;;;;;15.52;7.07;;;;;;;-5.75;64.92;101384.22;4767464;29;20078;-67
2024/02/17 01:57:26;;;;;;;13.40;6.93;;;;;;;-5.54;64.39;101410.44;4770248;29;20051;-69
2024/02/17 01:59:54;;;;;;;15.85;7.20;;;;;;;-5.71;64.29;101370.13;4772322;29;20093;-67
2024/02/17 02:02:20;;;;;;;16.30;7.15;;;;;;;-5.56;64.68;101390.78;4793635;29;20078;-69
2024/02/17 02:04:48;;;;;;;17.38;7.57;;;;;;;-5.60;65.01;101375.31;4786112;29;20066;-67
2024/02/17 02:07:14;;;;;;;15.20;7.35;;;;;;;-5.50;64.05;101397.25;4783596;29;20047;-67
2024/02/17 02:09:40;;;;;;;17.67;7.65;;;;;;;-5.54;62.71;101397.75;4783464;29;20103;-68
2024/02/17 02:12:06;;;;;;;15.73;7.15;;;;;;;-5.59;64.32;101393.94;4783190;29;20096;-65
2024/02/17 02:14:33;;;;;;;14.35;7.05;;;;;;;-5.47;64.47;101394.97;4777663;29;20147;-68
2024/02/17 02:16:59;;;;;;;16.67;7.25;;;;;;;-5.46;64.36;101400.91;4764979;29;20073;-67
2024/02/17 02:19:26;;;;;;;16.05;6.70;;;;;;;-5.60;64.02;101384.56;4776611;29;20055;-68
2024/02/17 02:21:55;;;;;;;13.35;6.97;;;;;;;-5.78;64.08;101369.63;4780414;29;20146;-67
2024/02/17 02:24:25;;;;;;;14.82;7.05;;;;;;;-5.59;63.84;101381.25;4778124;29;20062;-69
2024/02/17 02:26:51;;;;;;;16.33;7.32;;;;;;;-5.64;64.61;101378.34;4794361;29;20147;-68
2024/02/17 02:29:17;;;;;;;15.50;7.30;;;;;;;-5.71;64.33;101362.50;4753087;29;20098;-68
2024/02/17 02:31:44;;;;;;;15.50;6.90;;;;;;;-5.67;64.26;101372.16;4765994;29;20058;-68
2024/02/17 02:34:10;;;;;;;16.35;7.05;;;;;;;-5.63;64.07;101379.25;4792803;29;20138;-68
2024/02/17 02:36:36;;;;;;;15.80;7.57;;;;;;;-5.82;64.05;101337.16;4779970;29;20043;-68
2024/02/17 02:39:02;;;;;;;16.15;7.47;;;;;;;-5.61;64.41;101367.56;4766028;29;20051;-65
2024/02/17 02:41:28;;;;;;;12.98;6.55;;;;;;;-5.62;64.54;101365.78;4750086;29;20047;-68
2024/02/17 02:43:54;;;;;;;16.10;7.13;;;;;;;-5.50;64.28;101382.03;4793774;29;20054;-68
2024/02/17 02:46:20;;;;;;;14.90;7.03;;;;;;;-5.76;64.21;101357.06;4779044;29;20738;-68
2024/02/17 02:48:48;;;;;;;14.23;7.10;;;;;;;-5.79;63.99;101369.50;4791519;29;20062;-67
2024/02/17 02:51:30;;;;;;;15.90;7.47;;;;;;;-5.85;64.38;101359.75;4772175;29;20085;-69
2024/02/17 02:53:56;;;;;;;19.70;7.90;;;;;;;-5.78;64.66;101369.63;4783182;29;20049;-68
2024/02/17 02:56:23;;;;;;;15.23;7.38;;;;;;;-5.70;64.20;101371.91;4785203;29;20043;-67
2024/02/17 02:58:49;;;;;;;16.83;7.32;;;;;;;-5.72;64.54;101364.16;4767114;29;20047;-67
2024/02/17 03:01:15;;;;;;;18.35;7.40;;;;;;;-5.67;63.92;101377.22;4761381;29;20039;-69
2024/02/17 03:03:41;;;;;;;18.33;8.07;;;;;;;-5.59;64.05;101388.88;4766378;29;20073;-68
2024/02/17 03:06:07;;;;;;;16.48;7.65;;;;;;;-5.74;64.27;101355.56;4780340;29;20047;-68
2024/02/17 03:08:33;;;;;;;21.92;8.13;;;;;;;-5.67;64.40;101385.72;4764909;29;20046;-68
2024/02/17 03:10:59;;;;;;;16.40;6.95;;;;;;;-5.81;64.03;101361.75;4797383;29;20089;-68
2024/02/17 03:13:26;;;;;;;16.23;7.57;;;;;;;-5.64;64.36;101377.47;4789486;29;20547;-67
2024/02/17 03:15:52;;;;;;;19.55;7.72;;;;;;;-5.63;63.85;101376.72;4750834;29;20046;-67
2024/02/17 03:18:18;;;;;;;17.63;7.90;;;;;;;-5.67;64.03;101346.78;4764448;29;20041;-68
2024/02/17 03:20:44;;;;;;;18.27;6.97;;;;;;;-5.64;64.09;101372.41;4794690;29;20043;-67
2024/02/17 03:23:10;;;;;;;17.98;8.23;;;;;;;-5.96;63.77;101330.06;4777822;29;20095;-69
2024/02/17 03:25:36;;;;;;;17.25;8.75;;;;;;;-5.98;64.52;101336.66;4796585;29;20049;-68
2024/02/17 03:28:02;;;;;;;18.35;8.00;;;;;;;-6.02;64.34;101319.44;4794667;29;20042;-68
2024/02/17 03:30:28;;;;;;;16.23;7.65;;;;;;;-5.80;64.50;101361.00;4792420;29;20047;-65
2024/02/17 03:32:55;;;;;;;18.15;7.80;;;;;;;-5.85;64.87;101321.72;4780464;29;20038;-65
2024/02/17 03:35:22;;;;;;;16.17;7.50;;;;;;;-5.64;64.55;101347.91;4792927;29;20046;-66
2024/02/17 03:37:48;;;;;;;15.35;7.82;;;;;;;-5.54;64.40;101354.63;4776378;29;20471;-68
2024/02/17 03:40:16;;;;;;;16.30;7.72;;;;;;;-5.73;64.62;101311.66;4778707;29;20038;-66
2024/02/17 03:42:42;;;;;;;18.02;8.52;;;;;;;-5.65;64.08;101322.44;4781343;29;20051;-66
2024/02/17 03:45:09;;;;;;;15.85;8.18;;;;;;;-5.64;63.88;101336.91;4779715;29;20047;-66
2024/02/17 03:47:35;;;;;;;19.45;8.48;;;;;;;-5.62;64.13;101331.19;4781366;29;20038;-65
2024/02/17 03:50:01;;;;;;;15.02;8.45;;;;;;;-5.69;64.40;101328.91;4763081;29;20059;-67
2024/02/17 03:52:27;;;;;;;19.13;7.65;;;;;;;-5.87;63.84;101315.63;4778496;29;20042;-64
2024/02/17 03:54:54;;;;;;;18.13;7.43;;;;;;;-5.81;64.53;101313.56;4762583;29;20051;-67
2024/02/17 03:57:20;;;;;;;20.20;8.35;;;;;;;-5.88;63.95;101308.78;4776760;29;20511;-67
2024/02/17 03:59:46;;;;;;;17.35;7.90;;;;;;;-6.03;64.57;101302.47;4791654;29;20043;-67
2024/02/17 04:02:12;;;;;;;17.23;8.70;;;;;;;-5.99;64.50;101291.78;4780534;29;20047;-67
2024/02/17 04:04:39;;;;;;;19.08;7.90;;;;;;;-6.08;63.92;101297.94;4761649;29;20054;-67
2024/02/17 04:07:05;;;;;;;16.15;8.90;;;;;;;-5.96;64.73;101298.03;4777098;29;20051;-66
2024/02/17 04:09:31;;;;;;;17.65;8.30;;;;;;;-5.83;65.24;101293.94;4791383;29;20047;-66
2024/02/17 04:11:57;;;;;;;17.50;8.32;;;;;;;-5.63;64.78;101293.00;4793833;29;20043;-66
2024/02/17 04:14:23;;;;;;;17.15;8.27;;;;;;;-5.69;64.18;101295.91;4795209;29;20142;-65
2024/02/17 04:16:49;;;;;;;20.55;8.75;;;;;;;-5.76;64.23;101292.00;4792384;29;20042;-66
2024/02/17 04:19:15;;;;;;;16.38;7.95;;;;;;;-5.84;64.38;101290.50;4793565;29;20050;-68
2024/02/17 04:21:43;;;;;;;18.92;7.63;;;;;;;-5.84;64.94;101285.41;4780608;29;20129;-64
2024/02/17 04:24:09;;;;;;;18.08;8.63;;;;;;;-5.88;65.05;101277.44;4761356;29;20157;-68
2024/02/17 04:26:35;;;;;;;19.23;8.60;;;;;;;-5.79;65.25;101278.19;4779635;29;20126;-66
2024/02/17 04:29:01;;;;;;;18.40;7.90;;;;;;;-5.94;64.80;101249.97;4791354;29;20061;-67
2024/02/17 04:31:27;;;;;;;18.02;8.90;;;;;;;-6.30;64.66;101206.56;4777270;29;20039;-67
2024/02/17 04:33:56;;;;;;;18.58;8.50;;;;;;;-5.77;65.65;101269.06;4791231;29;20043;-66
2024/02/17 04:36:22;;;;;;;17.67;8.43;;;;;;;-5.73;65.36;101257.50;4776715;29;20038;-67
2024/02/17 04:38:48;;;;;;;16.65;7.45;;;;;;;-5.73;64.96;101257.50;4795717;29;20053;-64
2024/02/17 04:41:14;;;;;;;20.13;8.30;;;;;;;-6.08;64.92;101210.84;4749782;29;20110;-68
2024/02/17 04:43:40;;;;;;;21.70;9.63;;;;;;;-5.81;65.46;101242.56;4776134;29;20143;-66
2024/02/17 04:46:06;;;;;;;21.17;9.10;;;;;;;-5.57;65.05;101260.50;4776118;29;20502;-67
2024/02/17 04:48:32;;;;;;;21.10;8.98;;;;;;;-5.64;65.33;101248.97;4790136;29;20082;-67
2024/02/17 04:50:58;;;;;;;23.40;9.15;;;;;;;-5.63;64.67;101249.88;4780358;29;20503;-68
2024/02/17 04:53:24;;;;;;;16.25;8.13;;;;;;;-5.52;64.89;101256.69;4795216;29;20050;-65
2024/02/17 04:55:50;;;;;;;17.67;8.30;;;;;;;-5.84;65.17;101204.28;4766397;29;20039;-66
2024/02/17 04:58:19;;;;;;;18.02;7.97;;;;;;;-5.67;65.38;101235.19;4780625;29;20039;-70
2024/02/17 05:00:48;;;;;;;19.80;8.80;;;;;;;-5.59;64.86;101244.28;4767497;29;20039;-69
2024/02/17 05:03:15;;;;;;;20.40;8.05;;;;;;;-5.42;64.81;101259.97;4783876;29;20051;-68
2024/02/17 05:05:42;;;;;;;20.52;8.55;;;;;;;-5.56;64.95;101233.50;4770275;29;20077;-69
2024/02/17 05:08:08;;;;;;;17.83;9.13;;;;;;;-5.37;65.80;101254.47;4781495;29;20050;-68
2024/02/17 05:10:35;;;;;;;20.90;9.02;;;;;;;-5.07;65.64;101246.59;4779703;29;20142;-67
2024/02/17 05:13:01;;;;;;;19.38;9.07;;;;;;;-5.00;65.09;101228.53;4783303;29;20134;-66
2024/02/17 05:15:27;;;;;;;19.02;8.23;;;;;;;-4.94;64.79;101254.38;4753486;29;20134;-68
2024/02/17 05:17:53;;;;;;;22.13;8.23;;;;;;;-5.23;64.80;101214.03;4794822;29;20062;-66
2024/02/17 05:20:19;;;;;;;18.13;8.43;;;;;;;-5.14;64.38;101250.31;4796390;29;20517;-65
2024/02/17 05:22:45;;;;;;;19.52;8.20;;;;;;;-5.45;64.70;101197.16;4779608;29;20469;-68
2024/02/17 05:25:12;;;;;;;20.48;9.63;;;;;;;-5.36;64.10;101217.28;4780856;29;20058;-68
2024/02/17 05:27:37;;;;;;;18.73;9.02;;;;;;;-5.48;64.56;101212.13;4780482;29;20104;-68
2024/02/17 05:30:04;;;;;;;19.83;8.98;;;;;;;-5.34;63.64;101229.34;4798016;29;20043;-69
2024/02/17 05:32:30;;;;;;;17.90;8.48;;;;;;;-5.49;64.40;101211.25;4768408;29;21877;-69
2024/02/17 05:34:58;;;;;;;22.52;9.23;;;;;;;-5.48;64.70;101229.88;4766940;29;20137;-69
2024/02/17 05:37:24;;;;;;;20.70;9.23;;;;;;;-5.78;64.94;101146.44;4797565;29;20092;-70
2024/02/17 05:39:50;;;;;;;22.13;9.00;;;;;;;-5.40;65.27;101206.00;4797711;29;20135;-69
2024/02/17 05:42:16;;;;;;;21.52;9.60;;;;;;;-5.27;63.87;101233.25;4769394;29;20046;-67
2024/02/17 05:44:42;;;;;;;19.48;9.77;;;;;;;-5.59;64.70;101173.25;4769382;29;20058;-68
2024/02/17 05:47:08;;;;;;;22.90;9.45;;;;;;;-5.16;65.12;101216.31;4780236;29;20514;-68
2024/02/17 05:49:34;;;;;;;19.27;9.10;;;;;;;-5.01;64.81;101219.13;4755147;29;20055;-69
2024/02/17 05:52:00;;;;;;;21.48;9.00;;;;;;;-5.02;64.85;101219.91;4795997;29;20092;-69
2024/02/17 05:54:26;;;;;;;17.40;9.20;;;;;;;-5.11;65.11;101214.09;4781074;29;20119;-68
2024/02/17 05:56:52;;;;;;;16.63;8.95;;;;;;;-5.00;64.70;101219.25;4794673;29;20648;-69
2024/02/17 05:59:18;;;;;;;16.67;9.20;;;;;;;-5.13;64.58;101186.06;4783776;29;20050;-70
2024/02/17 06:01:46;;;;;;;20.33;9.52;;;;;;;-5.02;64.76;101197.06;4767742;29;20182;-71
2024/02/17 06:04:13;;;;;;;19.83;9.27;;;;;;;-4.86;65.22;101194.91;4765381;29;20206;-70
2024/02/17 06:06:39;;;;;;;18.65;9.23;;;;;;;-4.66;65.68;101207.34;4782283;29;20431;-69
2024/02/17 06:09:05;;;;;;;22.48;8.75;;;;;;;-4.60;64.86;101223.03;4765362;29;20707;-70
2024/02/17 06:11:31;;;;;;;18.02;8.45;;;;;;;-4.62;64.90;101212.75;4789398;29;20441;-69
2024/02/17 06:13:57;;;;;;;19.67;9.05;;;;;;;-4.56;64.29;101231.00;4767538;29;20116;-68
2024/02/17 06:16:27;;;;;;;20.27;9.00;;;;;;;-4.47;65.17;101218.09;4768780;29;20092;-67
2024/02/17 06:21:37;;;;;;;17.20;9.32;;;;;;;-4.35;64.63;101202.88;4770597;29;20043;-68
2024/02/17 06:24:03;;;;;;;18.88;9.68;;;;;;;-4.12;64.52;101208.78;4780914;29;20042;-69
2024/02/17 06:26:31;;;;;;;24.48;9.80;;;;;;;-4.25;64.68;101174.81;4782095;29;20046;-68
2024/02/17 06:29:00;;;;;;;22.40;9.85;;;;;;;-4.06;64.68;101178.69;4780187;29;20047;-69
2024/02/17 06:31:26;;;;;;;20.60;9.82;;;;;;;-4.19;64.10;101135.34;4784839;29;20043;-69
2024/02/17 06:33:53;;;;;;;18.45;8.90;;;;;;;-4.36;64.04;101134.13;4778512;29;20046;-71
2024/02/17 06:36:19;;;;;;;18.55;9.80;;;;;;;-4.01;63.92;101184.97;4769616;29;20145;-70
2024/02/17 06:38:45;;;;;;;21.77;9.95;;;;;;;-4.05;64.38;101180.44;4777057;29;21452;-70
2024/02/17 06:41:13;;;;;;;17.20;8.73;;;;;;;-4.01;64.46;101174.81;4796185;29;20170;-67
2024/02/17 06:43:39;;;;;;;21.17;10.30;;;;;;;-3.92;64.51;101173.72;4796861;29;20039;-69
2024/02/17 06:46:07;;;;;;;19.38;10.23;;;;;;;-3.84;64.55;101163.31;4797183;29;20047;-70
2024/02/17 06:48:34;;;;;;;20.45;10.13;;;;;;;-3.60;64.75;101192.91;4797756;29;20546;-69
2024/02/17 06:51:01;;;;;;;19.42;9.65;;;;;;;-3.46;64.50;101184.59;4779950;29;20047;-70
2024/02/17 06:53:28;;;;;;;21.63;10.05;;;;;;;-3.64;63.93;101154.53;4783221;29;20057;-71
2024/02/17 06:55:54;;;;;;;26.25;13.18;;;;;;;-3.52;64.04;101153.63;4779424;29;20059;-69
2024/02/17 06:58:20;;;;;;;16.63;9.10;;;;;;;-3.60;63.73;101147.09;4781006;29;20054;-68
2024/02/17 07:00:47;;;;;;;16.25;8.80;;;;;;;-3.56;63.91;101162.72;4779995;29;20914;-69
2024/02/17 07:03:13;;;;;;;17.17;9.05;;;;;;;-3.82;64.06;101130.34;4795887;29;20090;-71
2024/02/17 07:05:40;;;;;;;20.15;9.73;;;;;;;-3.54;64.01;101157.72;4780173;29;20054;-67
2024/02/17 07:08:11;;;;;;;16.08;8.25;;;;;;;-3.69;63.56;101122.81;4782916;29;20085;-68
2024/02/17 07:10:37;;;;;;;21.25;8.95;;;;;;;-3.28;63.93;101166.28;4779759;29;20495;-69
2024/02/17 07:13:12;;;;;;;18.20;9.27;;;;;;;-3.13;64.11;101153.72;4782479;29;20046;-67
2024/02/17 07:15:38;;;;;;;18.95;9.25;;;;;;;-3.10;63.20;101162.44;4780957;29;20041;-66
2024/02/17 07:18:04;;;;;;;19.90;8.40;;;;;;;-3.13;63.48;101169.88;4778110;29;21009;-67
2024/02/17 07:20:32;;;;;;;17.58;8.52;;;;;;;-3.12;63.45;101169.09;4794058;29;20047;-68
2024/02/17 07:22:59;;;;;;;17.20;8.50;;;;;;;-3.15;63.51;101143.41;4779829;29;20523;-66
2024/02/17 07:25:29;;;;;;;17.98;8.57;;;;;;;-3.12;63.65;101152.94;4776905;29;20047;-68
2024/02/17 07:27:58;;;;;;;17.67;8.65;;;;;;;-3.01;63.52;101125.66;4796302;29;20157;-75
2024/02/17 07:30:28;;;;;;;15.07;7.68;;;;;;;-2.79;63.39;101136.50;4793254;29;20074;-71
2024/02/17 07:32:56;;;;;;;15.70;7.63;;;;;;;-2.54;63.32;101152.53;4796910;29;20051;-67
2024/02/17 07:35:23;;;;;;;13.73;6.82;;;;;;;-2.55;63.14;101113.41;4795564;29;20419;-71
2024/02/17 07:37:50;;;;;;;16.40;7.15;;;;;;;-2.18;63.17;101142.94;4778527;29;20133;-71
2024/02/17 07:40:18;;;;;;;16.95;7.50;;;;;;;-2.02;62.87;101115.09;4779771;29;20118;-68
2024/02/17 07:42:44;;;;;;;16.40;6.93;;;;;;;-1.75;62.66;101127.78;4795103;29;20046;-67
2024/02/17 07:45:10;;;;;;;14.25;7.47;;;;;;;-1.62;62.08;101142.19;4795478;29;20063;-68
2024/02/17 07:47:36;;;;;;;14.30;7.70;;;;;;;-1.63;62.45;101107.25;4765377;29;20583;-68
2024/02/17 07:50:07;;;;;;;13.98;7.10;;;;;;;-1.74;62.26;101093.81;4792740;29;20078;-70
2024/02/17 07:52:40;;;;;;;15.95;7.28;;;;;;;-1.66;62.27;101094.31;5071675;27;20406;-69
2024/02/17 07:55:06;;;;;;;13.15;7.25;;;;;;;-1.72;61.75;101083.72;5058525;28;20487;-71
2024/02/17 07:57:32;;;;;;;16.25;7.43;;;;;;;-1.53;61.37;101099.38;5058721;28;20054;-73
2024/02/17 07:59:57;;;;;;;14.30;6.45;;;;;;;-1.87;61.48;101028.38;5057788;28;20037;-72
2024/02/17 08:02:24;;;;;;;15.30;6.80;;;;;;;-1.69;61.24;101082.22;5046249;28;20033;-72
2024/02/17 08:04:50;;;;;;;15.68;6.55;;;;;;;-1.73;61.29;101075.16;5072158;28;20567;-73
2024/02/17 08:07:16;;;;;;;17.02;7.18;;;;;;;-1.92;61.53;101022.13;5068887;28;20041;-69
2024/02/17 08:09:42;;;;;;;13.52;6.88;;;;;;;-1.28;61.61;101071.84;5071381;28;20120;-70
2024/02/17 08:12:10;;;;;;;15.63;6.70;;;;;;;-1.13;60.77;100988.47;5070137;28;20035;-75
2024/02/17 08:14:36;;;;;;;12.98;6.57;;;;;;;0.01;60.77;101067.19;5070595;28;20036;-75
2024/02/17 08:17:02;;;;;;;14.80;7.13;;;;;;;0.70;60.21;101058.84;5058871;28;20040;-72
2024/02/17 08:19:28;;;;;;;12.50;6.10;;;;;;;1.31;59.01;101052.44;5068886;28;20033;-69
2024/02/17 08:21:54;;;;;;;14.05;6.45;;;;;;;1.61;59.13;101070.16;5067694;28;20036;-70
2024/02/17 08:24:20;;;;;;;10.77;6.05;;;;;;;1.24;57.93;101065.78;5069579;28;20048;-66
2024/02/17 08:26:46;;;;;;;9.38;5.53;;;;;;;0.66;58.51;101018.47;5069420;28;20537;-62
2024/02/17 08:29:12;;;;;;;12.50;6.28;;;;;;;0.37;58.13;101048.59;5070709;28;20041;-67
2024/02/17 08:31:38;;;;;;;13.18;6.45;;;;;;;0.11;58.40;101038.75;5068336;28;20033;-67
2024/02/17 08:34:07;;;;;;;11.80;6.15;;;;;;;0.25;59.11;101034.34;5070178;28;20068;-67
2024/02/17 08:36:38;;;;;;;12.73;6.50;;;;;;;0.31;58.29;101032.91;5067853;28;20128;-66
2024/02/17 08:39:04;;;;;;;10.23;5.72;;;;;;;0.09;58.18;101012.16;5073605;28;20566;-67
2024/02/17 08:41:30;;;;;;;13.60;6.18;;;;;;;-0.02;58.66;101019.28;5043125;28;20186;-67
2024/02/17 08:43:56;;;;;;;10.75;5.50;;;;;;;-0.26;58.06;101011.16;5056576;28;20047;-66
2024/02/17 08:46:22;;;;;;;11.95;5.78;;;;;;;-0.09;59.09;101027.41;5060518;28;20040;-65
2024/02/17 08:48:48;;;;;;;9.63;5.38;;;;;;;0.22;58.91;101011.16;5051937;28;20083;-67
2024/02/17 08:51:15;;;;;;;11.18;5.47;;;;;;;0.69;58.47;101009.25;5069635;28;20399;-69
2024/02/17 08:53:41;;;;;;;9.82;5.70;;;;;;;1.12;58.64;100981.44;5059082;28;20036;-68
2024/02/17 08:56:06;;;;;;;8.15;4.78;;;;;;;1.88;57.86;100972.13;5069697;28;20043;-68
2024/02/17 08:58:32;;;;;;;11.73;5.32;;;;;;;3.22;57.60;100982.06;5053164;28;20128;-70
2024/02/17 09:00:58;;;;;;;10.00;5.72;;;;;;;3.98;55.06;100991.81;5067638;28;20123;-69
2024/02/17 09:03:24;;;;;;;10.13;5.28;;;;;;;4.51;56.46;100971.38;5077648;28;20044;-71
2024/02/17 09:05:50;;;;;;;9.32;5.20;;;;;;;5.35;55.17;100964.66;5035908;28;20040;-69
2024/02/17 09:08:16;;;;;;;11.13;5.43;;;;;;;5.63;53.40;100949.97;5056018;28;20189;-71
2024/02/17 09:10:42;;;;;;;8.65;5.30;;;;;;;5.71;52.84;100953.66;5054236;28;20040;-72
2024/02/17 09:13:08;;;;;;;8.70;5.28;;;;;;;5.93;52.33;100967.22;5053760;28;20043;-72
2024/02/17 09:15:34;;;;;;;9.63;4.88;;;;;;;6.29;52.16;100971.69;5049649;28;20043;-70
2024/02/17 09:18:00;;;;;;;10.48;5.40;;;;;;;6.14;51.37;100940.25;5052482;28;20124;-70
2024/02/17 09:20:26;;;;;;;11.10;5.60;;;;;;;6.54;51.86;100943.03;5052293;28;20040;-70
2024/02/17 09:22:55;;;;;;;8.63;5.47;;;;;;;7.38;52.21;100951.09;5051704;28;20040;-72
2024/02/17 09:25:21;;;;;;;9.75;5.68;;;;;;;7.48;49.56;100906.44;5053282;28;20494;-71
2024/02/17 09:27:46;;;;;;;10.25;5.47;;;;;;;8.14;50.32;100945.75;5040836;28;20040;-72
2024/02/17 09:30:13;;;;;;;11.95;6.03;;;;;;;8.65;48.88;100927.69;5053502;28;20087;-71
2024/02/17 09:32:38;;;;;;;9.25;5.45;;;;;;;9.43;47.35;100921.97;5024426;28;20071;-72
2024/02/17 09:35:05;;;;;;;9.57;5.55;;;;;;;9.19;46.23;100930.25;5050899;28;20072;-70
2024/02/17 09:37:30;;;;;;;10.73;5.57;;;;;;;9.16;48.52;100919.81;5056309;28;20071;-69
2024/02/17 09:39:56;;;;;;;11.23;6.13;;;;;;;9.86;46.61;100924.22;5053762;28;20155;-69
2024/02/17 09:42:22;;;;;;;7.55;5.13;;;;;;;9.99;46.03;100880.19;5054143;28;20114;-69
2024/02/17 09:44:48;;;;;;;8.38;5.22;;;;;;;10.57;47.01;100923.25;5055888;28;20040;-73
2024/02/17 09:47:16;;;;;;;8.85;5.75;;;;;;;11.00;44.74;100919.28;5039155;28;20382;-70
2024/02/17 09:49:43;;;;;;;10.13;5.72;;;;;;;11.04;44.11;100895.84;5054115;28;20071;-72
2024/02/17 09:52:10;;;;;;;9.85;5.70;;;;;;;10.97;43.19;100911.44;5051874;28;20108;-73
2024/02/17 09:54:38;;;;;;;8.98;5.53;;;;;;;10.81;43.87;100910.47;5055001;28;20055;-71
2024/02/17 09:57:05;;;;;;;9.25;5.22;;;;;;;10.75;42.98;100901.72;5036195;28;20048;-69
2024/02/17 09:59:31;;;;;;;11.40;6.15;;;;;;;10.46;42.43;100911.03;5041682;28;20821;-68
2024/02/17 10:01:57;;;;;;;9.15;5.80;;;;;;;10.73;44.53;100903.44;5046338;28;20037;-68
2024/02/17 10:04:23;;;;;;;10.07;5.78;;;;;;;11.39;42.86;100884.78;5029466;28;20036;-69
2024/02/17 10:07:00;;;;;;;9.82;5.95;;;;;;;11.38;42.45;100886.50;5053987;28;20055;-70
2024/02/17 10:09:27;;;;;;;9.23;5.57;;;;;;;10.97;42.62;100835.94;5056299;28;20048;-69
2024/02/17 10:11:54;;;;;;;8.10;5.28;;;;;;;11.53;42.50;100887.44;5053173;28;20621;-71
2024/02/17 10:14:24;;;;;;;11.52;6.07;;;;;;;11.44;42.18;100872.66;5058633;28;20049;-68
2024/02/17 10:16:58;;;;;;;8.88;6.28;;;;;;;11.61;43.19;100846.63;5055427;28;20048;-70
2024/02/17 10:19:24;;;;;;;8.48;5.45;;;;;;;11.46;40.58;100876.13;5055643;28;20049;-69
2024/02/17 10:21:49;;;;;;;9.05;5.55;;;;;;;10.74;40.70;100863.53;5048654;28;20037;-68
2024/02/17 10:24:15;;;;;;;8.75;5.90;;;;;;;10.31;41.53;100835.38;5054328;28;20158;-68
2024/02/17 10:26:42;;;;;;;10.65;5.78;;;;;;;9.26;41.34;100868.91;5053977;28;20128;-67
2024/02/17 10:29:15;;;;;;;9.85;5.80;;;;;;;7.64;42.00;100831.63;5052794;28;20499;-69
2024/02/17 10:31:42;;;;;;;10.57;6.10;;;;;;;7.14;42.79;100846.16;5050715;28;20041;-69
2024/02/17 10:34:12;;;;;;;9.73;5.65;;;;;;;6.84;43.91;100839.44;5056529;28;20044;-67
2024/02/17 10:36:38;;;;;;;9.75;5.93;;;;;;;6.61;43.42;100842.38;5040988;28;20036;-68
2024/02/17 10:39:07;;;;;;;10.15;5.15;;;;;;;6.26;44.32;100829.44;5041027;28;20072;-69
2024/02/17 10:41:36;;;;;;;8.90;5.32;;;;;;;5.92;44.19;100827.66;5054099;28;20049;-69
2024/02/17 10:44:03;;;;;;;10.52;5.55;;;;;;;5.33;44.64;100816.59;5037685;28;20068;-67
2024/02/17 10:46:33;;;;;;;10.68;5.88;;;;;;;4.68;45.22;100796.63;5037463;28;20127;-68
2024/02/17 10:49:07;;;;;;;10.30;6.32;;;;;;;4.58;46.27;100817.75;5045300;28;20051;-69
2024/02/17 10:51:40;;;;;;;12.07;6.28;;;;;;;4.21;45.40;100800.28;5053095;28;20041;-67
2024/02/17 10:54:10;;;;;;;12.80;6.13;;;;;;;4.07;47.04;100820.44;5054806;28;20140;-67
2024/02/17 10:56:36;;;;;;;11.45;5.68;;;;;;;4.16;48.06;100806.13;5054790;28;20511;-67
2024/02/17 10:59:03;;;;;;;11.07;6.03;;;;;;;4.17;47.71;100798.44;5053856;28;20040;-67
2024/02/17 11:01:30;;;;;;;12.55;6.35;;;;;;;4.05;47.78;100818.63;5052682;28;20049;-67
2024/02/17 11:03:59;;;;;;;11.73;5.95;;;;;;;3.50;47.46;100797.84;5034921;28;20098;-68
2024/02/17 11:06:25;;;;;;;10.30;5.32;;;;;;;3.13;48.66;100801.66;5052570;28;20040;-68
2024/02/17 11:08:52;;;;;;;11.18;5.70;;;;;;;3.01;49.00;100799.50;5051650;28;20760;-68
2024/02/17 11:11:26;;;;;;;13.35;6.22;;;;;;;2.54;48.62;100792.56;5044772;28;20096;-68
2024/02/17 11:13:56;;;;;;;9.57;5.13;;;;;;;2.53;50.12;100770.25;5054097;28;20538;-68
2024/02/17 11:16:25;;;;;;;12.25;6.45;;;;;;;2.69;50.23;100753.75;5054870;28;20044;-70
2024/02/17 11:18:55;;;;;;;11.60;6.03;;;;;;;3.14;50.12;100799.13;5052517;28;20089;-67